Time;durP1;ratioP1;P1;durP2;ratioP2;P2;SDS_P1;SDS_P2;PMS_P1;PMS_P2;Temp;Humidity;BMP_temperature;BMP_pressure;BME280_temperature;BME280_humidity;BME280_pressure;Samples;Min_cycle;Max_cycle;Signal;HPM_P1;HPM_P2
2023/06/20 00:00:25;;;;;;;9.20;7.00;;;;;;;21.83;61.40;99438.03;5092731;28;20016;-75
2023/06/20 00:02:50;;;;;;;7.00;6.32;;;;;;;22.05;61.43;99469.47;5092640;28;20030;-75
2023/06/20 00:05:15;;;;;;;6.75;6.15;;;;;;;21.67;61.47;99430.88;5090141;28;20401;-76
2023/06/20 00:07:41;;;;;;;7.00;6.30;;;;;;;21.84;61.72;99465.72;5092576;28;20116;-74
2023/06/20 00:10:08;;;;;;;7.18;5.90;;;;;;;21.84;61.50;99477.28;5092854;28;20019;-75
2023/06/20 00:12:34;;;;;;;6.65;6.05;;;;;;;21.55;61.70;99444.47;5097322;28;20085;-75
2023/06/20 00:14:59;;;;;;;6.47;5.43;;;;;;;21.40;61.88;99436.22;5094517;28;20027;-75
2023/06/20 00:17:25;;;;;;;7.22;6.15;;;;;;;21.88;62.00;99505.28;5092435;28;20497;-75
2023/06/20 00:19:51;;;;;;;7.53;5.88;;;;;;;21.83;61.95;99493.66;5090923;28;20073;-76
2023/06/20 00:22:16;;;;;;;6.55;5.93;;;;;;;21.41;61.84;99434.34;5091046;28;20028;-75
2023/06/20 00:24:42;;;;;;;6.88;5.95;;;;;;;21.88;61.89;99502.59;5090878;28;20108;-76
2023/06/20 00:27:07;;;;;;;9.52;6.82;;;;;;;21.81;61.90;99491.25;5091991;28;20027;-76
2023/06/20 00:29:33;;;;;;;8.77;6.03;;;;;;;21.89;61.81;99508.78;5092134;28;20050;-76
2023/06/20 00:31:58;;;;;;;7.07;6.38;;;;;;;21.42;61.75;99422.53;5092201;28;20016;-76
2023/06/20 00:34:23;;;;;;;8.57;6.50;;;;;;;21.47;61.84;99428.75;5092312;28;20058;-75
2023/06/20 00:36:49;;;;;;;6.43;5.78;;;;;;;21.83;61.87;99491.78;5092285;28;20028;-77
2023/06/20 00:39:14;;;;;;;7.90;5.28;;;;;;;21.48;61.90;99446.50;5091978;28;20512;-76
2023/06/20 00:41:40;;;;;;;9.13;6.60;;;;;;;21.78;62.09;99493.63;5091945;28;20499;-76
2023/06/20 00:44:05;;;;;;;7.57;6.00;;;;;;;21.75;62.07;99492.25;5090820;28;20164;-75
2023/06/20 00:46:41;;;;;;;6.70;5.95;;;;;;;21.40;62.01;99436.22;5091623;28;20098;-77
2023/06/20 00:49:08;;;;;;;6.95;5.97;;;;;;;21.74;62.18;99493.31;5090339;28;20034;-75
2023/06/20 00:51:37;;;;;;;9.65;6.10;;;;;;;21.69;62.30;99489.75;5091541;28;20107;-76
2023/06/20 00:54:03;;;;;;;8.35;5.80;;;;;;;21.69;62.32;99485.19;5091426;28;20054;-75
2023/06/20 00:56:29;;;;;;;11.73;6.05;;;;;;;21.68;62.29;99480.06;5090461;28;20032;-75
2023/06/20 00:58:54;;;;;;;8.15;6.57;;;;;;;21.17;62.33;99390.78;5091324;28;20044;-75
2023/06/20 01:01:21;;;;;;;8.43;6.20;;;;;;;21.76;62.24;99477.75;5091768;28;20035;-76
2023/06/20 01:03:50;;;;;;;8.23;6.25;;;;;;;21.26;62.19;99400.06;5091646;28;20032;-76
2023/06/20 01:06:42;;;;;;;6.55;5.88;;;;;;;21.46;61.87;99423.66;5091765;28;20039;-76
2023/06/20 01:09:16;;;;;;;8.32;6.05;;;;;;;21.86;61.80;99480.53;5091735;28;20112;-75
2023/06/20 01:12:01;;;;;;;7.80;6.03;;;;;;;21.84;61.79;99476.47;5090069;28;20076;-76
2023/06/20 01:14:50;;;;;;;13.15;6.95;;;;;;;21.86;61.85;99477.84;5083265;28;20036;-75
2023/06/20 01:17:35;;;;;;;9.02;5.97;;;;;;;21.52;61.52;99418.06;5091175;28;20027;-76
2023/06/20 01:20:45;;;;;;;7.43;6.05;;;;;;;21.73;61.74;99467.50;5091491;28;20035;-76
2023/06/20 01:23:20;;;;;;;8.82;6.13;;;;;;;21.80;61.63;99478.06;5032370;28;20413;-76
2023/06/20 01:26:05;;;;;;;7.22;6.35;;;;;;;21.66;61.70;99463.38;5049172;28;20148;-76
2023/06/20 01:28:58;;;;;;;7.72;5.70;;;;;;;21.68;61.67;99488.13;5078768;28;20032;-76
2023/06/20 01:31:32;;;;;;;9.10;6.15;;;;;;;21.64;61.91;99479.75;5091762;28;20028;-76
2023/06/20 01:34:20;;;;;;;7.35;6.30;;;;;;;21.02;61.74;99385.25;5091551;28;20024;-76
2023/06/20 01:36:54;;;;;;;8.45;6.03;;;;;;;21.39;61.89;99453.38;5091644;28;20407;-76
2023/06/20 01:39:39;;;;;;;10.48;6.22;;;;;;;21.30;62.16;99446.03;5091414;28;20020;-75
2023/06/20 01:42:05;;;;;;;6.95;5.72;;;;;;;21.21;62.04;99443.75;5091545;28;20035;-75
2023/06/20 01:44:32;;;;;;;10.68;6.35;;;;;;;21.40;62.21;99468.44;5091456;28;20032;-76
2023/06/20 01:46:59;;;;;;;9.13;5.88;;;;;;;21.32;62.21;99466.19;5091312;28;20416;-75
2023/06/20 01:49:26;;;;;;;6.88;5.97;;;;;;;21.22;61.96;99433.81;5090095;28;20035;-75
2023/06/20 01:51:57;;;;;;;10.40;7.22;;;;;;;21.11;61.96;99416.78;5091097;28;20088;-76
2023/06/20 01:54:29;;;;;;;8.35;6.70;;;;;;;21.22;61.92;99440.03;5089873;28;20020;-76
2023/06/20 01:56:59;;;;;;;7.40;6.13;;;;;;;21.56;61.82;99485.59;5091169;28;20055;-76
2023/06/20 01:59:27;;;;;;;6.68;6.10;;;;;;;21.59;61.68;99479.69;5091052;28;20031;-76
2023/06/20 02:01:55;;;;;;;10.73;5.97;;;;;;;21.55;61.79;99487.44;5089821;28;20076;-75
2023/06/20 02:04:21;;;;;;;9.00;6.45;;;;;;;21.43;61.81;99480.56;5091147;28;20566;-75
2023/06/20 02:06:48;;;;;;;11.48;6.28;;;;;;;21.47;61.78;99492.44;5091129;28;20027;-76
2023/06/20 02:09:15;;;;;;;9.40;6.10;;;;;;;21.33;61.59;99467.81;5091243;28;20092;-76
2023/06/20 02:11:41;;;;;;;7.65;5.80;;;;;;;21.48;61.74;99489.50;5090977;28;20394;-75
2023/06/20 02:14:08;;;;;;;8.65;6.53;;;;;;;21.21;61.51;99440.25;5090982;28;20023;-75
2023/06/20 02:16:35;;;;;;;9.20;6.30;;;;;;;21.07;61.42;99418.31;5090896;28;20024;-75
2023/06/20 02:19:01;;;;;;;8.73;6.30;;;;;;;21.38;61.17;99461.69;5090748;28;20051;-75
2023/06/20 02:21:31;;;;;;;8.23;6.13;;;;;;;21.07;60.89;99412.97;5090857;28;20047;-75
2023/06/20 02:23:57;;;;;;;10.00;6.70;;;;;;;21.34;61.01;99457.88;5090674;28;20016;-75
2023/06/20 02:26:28;;;;;;;7.97;6.07;;;;;;;21.39;60.76;99474.88;5090649;28;20025;-76
2023/06/20 02:28:58;;;;;;;9.23;6.10;;;;;;;21.36;60.78;99478.06;5091949;28;20416;-75
2023/06/20 02:31:28;;;;;;;6.82;5.80;;;;;;;20.84;60.48;99383.69;5094424;28;20032;-75
2023/06/20 02:33:57;;;;;;;7.80;5.93;;;;;;;21.50;60.43;99487.38;5094502;28;20020;-75
2023/06/20 02:36:26;;;;;;;9.48;6.22;;;;;;;21.23;60.14;99438.16;5094355;28;20471;-75
2023/06/20 02:38:58;;;;;;;8.93;6.13;;;;;;;21.49;59.93;99485.75;5094291;28;20028;-75
2023/06/20 02:41:24;;;;;;;10.93;5.97;;;;;;;21.49;59.93;99491.13;5093290;28;20024;-75
2023/06/20 02:43:50;;;;;;;9.50;6.10;;;;;;;21.44;59.77;99490.25;5097441;28;20609;-75
2023/06/20 02:46:15;;;;;;;10.68;6.22;;;;;;;21.46;59.78;99498.84;5095288;28;20016;-75
2023/06/20 02:49:05;;;;;;;7.93;6.53;;;;;;;21.40;59.87;99503.34;5093962;28;20024;-76
2023/06/20 02:51:37;;;;;;;9.20;6.57;;;;;;;20.85;59.74;99412.13;5092434;28;20092;-75
2023/06/20 02:54:11;;;;;;;9.35;6.30;;;;;;;21.47;59.63;99513.91;5093803;28;20454;-75
2023/06/20 02:56:41;;;;;;;8.45;6.28;;;;;;;21.37;59.71;99509.22;5093943;28;20024;-76
2023/06/20 02:59:09;;;;;;;8.07;5.93;;;;;;;21.11;59.74;99483.06;5092617;28;20434;-75
2023/06/20 03:01:37;;;;;;;7.20;6.07;;;;;;;21.39;59.63;99527.78;5093941;28;20557;-75
2023/06/20 03:04:04;;;;;;;8.98;5.80;;;;;;;20.90;59.59;99450.59;5093703;28;20024;-75
2023/06/20 03:06:31;;;;;;;13.38;6.70;;;;;;;21.17;59.71;99511.63;5097651;28;20024;-75
2023/06/20 03:08:59;;;;;;;8.68;6.03;;;;;;;21.33;59.59;99531.47;5098192;28;20032;-75
2023/06/20 03:11:24;;;;;;;8.45;6.30;;;;;;;21.17;59.61;99512.44;5093623;28;20398;-75
2023/06/20 03:13:50;;;;;;;7.78;6.78;;;;;;;20.97;59.52;99481.81;5093680;28;20027;-74
2023/06/20 03:16:15;;;;;;;8.18;6.25;;;;;;;21.34;59.51;99541.97;5093465;28;20038;-75
2023/06/20 03:18:41;;;;;;;9.45;6.90;;;;;;;21.35;59.56;99540.91;5093522;28;20019;-75
2023/06/20 03:21:06;;;;;;;8.75;6.25;;;;;;;21.10;59.49;99502.94;5093379;28;20024;-74
2023/06/20 03:23:32;;;;;;;13.48;7.00;;;;;;;20.92;59.66;99474.50;5093349;28;20096;-75
2023/06/20 03:25:58;;;;;;;11.90;7.03;;;;;;;21.23;59.98;99527.59;5093290;28;20035;-74
2023/06/20 03:28:24;;;;;;;12.73;7.57;;;;;;;20.75;59.85;99460.25;5093251;28;20055;-74
2023/06/20 03:30:51;;;;;;;7.65;6.93;;;;;;;21.04;59.76;99510.09;5093241;28;20527;-75
2023/06/20 03:33:16;;;;;;;11.23;6.72;;;;;;;20.88;59.64;99486.78;5093282;28;20016;-74
2023/06/20 03:35:42;;;;;;;12.07;7.57;;;;;;;20.70;59.73;99474.41;5093243;28;20176;-74
2023/06/20 03:38:07;;;;;;;9.60;7.20;;;;;;;20.91;59.63;99511.25;5093180;28;20032;-74
2023/06/20 03:40:33;;;;;;;11.93;8.02;;;;;;;21.01;59.68;99513.28;5092791;28;20035;-75
2023/06/20 03:42:58;;;;;;;9.70;6.88;;;;;;;20.78;59.55;99487.41;5093171;28;20054;-75
2023/06/20 03:45:24;;;;;;;10.82;6.70;;;;;;;20.81;59.66;99484.28;5092997;28;20024;-75
2023/06/20 03:47:49;;;;;;;9.57;6.57;;;;;;;20.80;59.46;99481.81;5093044;28;20405;-74
2023/06/20 03:50:14;;;;;;;10.68;7.32;;;;;;;20.97;59.50;99509.47;5092960;28;20019;-74
2023/06/20 03:52:40;;;;;;;13.00;8.10;;;;;;;20.80;59.49;99485.31;5092856;28;20027;-76
2023/06/20 03:55:06;;;;;;;8.88;7.55;;;;;;;21.04;59.29;99514.66;5092790;28;20481;-75
2023/06/20 03:57:31;;;;;;;9.55;7.30;;;;;;;21.33;59.30;99550.25;5091519;28;20044;-75
2023/06/20 03:59:57;;;;;;;11.48;7.72;;;;;;;21.28;59.18;99540.25;5092843;28;20532;-74
2023/06/20 04:02:22;;;;;;;11.63;8.50;;;;;;;21.40;59.03;99558.94;5091390;28;20505;-75
2023/06/20 04:04:50;;;;;;;11.07;7.80;;;;;;;21.21;59.04;99536.91;5092547;28;20596;-75
2023/06/20 04:07:18;;;;;;;9.40;7.95;;;;;;;21.00;59.01;99502.78;5092598;28;20104;-74
2023/06/20 04:09:50;;;;;;;10.50;8.02;;;;;;;21.46;59.01;99564.16;5092806;28;20081;-74
2023/06/20 04:12:15;;;;;;;10.98;8.23;;;;;;;21.40;58.76;99554.38;5092570;28;20032;-74
2023/06/20 04:14:41;;;;;;;15.23;8.43;;;;;;;21.18;59.01;99511.38;5092362;28;20103;-74
2023/06/20 04:17:06;;;;;;;14.57;8.75;;;;;;;21.54;58.79;99579.84;5092160;28;20081;-74
2023/06/20 04:19:33;;;;;;;16.60;9.05;;;;;;;21.58;58.83;99574.00;5092237;28;20031;-74
2023/06/20 04:21:59;;;;;;;12.50;9.35;;;;;;;21.63;58.79;99569.50;5092199;28;20024;-74
2023/06/20 04:24:24;;;;;;;10.57;7.85;;;;;;;21.59;58.07;99554.13;5092211;28;20122;-74
2023/06/20 04:26:49;;;;;;;10.50;7.95;;;;;;;21.75;58.09;99580.13;5092291;28;20024;-77
2023/06/20 04:29:15;;;;;;;9.18;8.13;;;;;;;21.59;58.02;99543.38;5092104;28;20039;-76
2023/06/20 04:31:41;;;;;;;11.00;8.70;;;;;;;21.81;57.95;99582.63;5092165;28;20060;-75
2023/06/20 04:34:06;;;;;;;10.95;9.00;;;;;;;21.78;57.91;99566.19;5092240;28;20042;-75
2023/06/20 04:36:34;;;;;;;10.30;9.23;;;;;;;21.78;57.78;99563.50;5092236;28;20028;-75
2023/06/20 04:38:59;;;;;;;8.95;8.05;;;;;;;21.86;57.72;99580.00;5091991;28;20081;-75
2023/06/20 04:41:25;;;;;;;10.20;8.98;;;;;;;21.92;57.73;99578.19;5092010;28;20485;-75
2023/06/20 04:43:50;;;;;;;10.45;9.18;;;;;;;21.96;57.40;99587.38;5091780;28;20032;-76
2023/06/20 04:46:16;;;;;;;9.77;8.77;;;;;;;21.34;57.17;99480.19;5092092;28;20165;-75
2023/06/20 04:48:42;;;;;;;11.18;8.60;;;;;;;22.03;57.00;99581.81;5092079;28;20081;-75
2023/06/20 04:51:09;;;;;;;9.95;8.43;;;;;;;21.97;56.83;99575.53;5091260;28;20424;-76
2023/06/20 04:53:35;;;;;;;9.45;8.43;;;;;;;22.01;56.57;99575.84;5092251;28;20089;-76
2023/06/20 04:56:01;;;;;;;9.27;8.23;;;;;;;21.56;56.63;99497.13;5092058;28;20028;-75
2023/06/20 04:58:28;;;;;;;9.75;8.27;;;;;;;21.94;56.27;99540.28;5091625;28;20052;-75
2023/06/20 05:00:55;;;;;;;9.00;7.95;;;;;;;21.91;56.17;99544.28;5091848;28;20032;-76
2023/06/20 05:03:20;;;;;;;8.77;7.78;;;;;;;21.96;55.93;99535.47;5091760;28;20020;-75
2023/06/20 05:05:46;;;;;;;9.65;8.75;;;;;;;22.14;55.87;99556.66;5090437;28;20523;-75
2023/06/20 05:08:11;;;;;;;10.73;8.07;;;;;;;22.16;55.79;99559.91;5091859;28;20485;-75
2023/06/20 05:10:36;;;;;;;9.18;8.00;;;;;;;22.08;55.82;99547.72;5092278;28;20028;-75
2023/06/20 05:13:02;;;;;;;10.48;8.95;;;;;;;21.84;55.88;99516.78;5091637;28;20107;-75
2023/06/20 05:15:27;;;;;;;9.15;8.20;;;;;;;22.23;55.87;99573.16;5091288;28;20107;-75
2023/06/20 05:17:53;;;;;;;10.48;9.05;;;;;;;21.99;55.77;99527.72;5091336;28;20432;-76
2023/06/20 05:20:19;;;;;;;8.98;8.07;;;;;;;22.39;56.01;99597.31;5090201;28;20028;-76
2023/06/20 05:22:45;;;;;;;10.32;8.93;;;;;;;21.93;55.83;99512.59;5091321;28;20032;-76
2023/06/20 05:25:11;;;;;;;10.70;9.68;;;;;;;22.49;55.60;99594.72;5091214;28;20127;-76
2023/06/20 05:27:36;;;;;;;10.05;9.02;;;;;;;22.50;55.32;99598.22;5091070;28;20077;-76
2023/06/20 05:30:02;;;;;;;12.02;10.50;;;;;;;22.56;55.65;99602.56;5091112;28;20024;-76
2023/06/20 05:32:27;;;;;;;9.85;8.98;;;;;;;22.65;55.35;99617.19;5090091;28;20416;-74
2023/06/20 05:34:53;;;;;;;10.02;9.02;;;;;;;22.32;55.04;99545.59;5091179;28;20467;-74
2023/06/20 05:37:19;;;;;;;10.20;8.90;;;;;;;22.65;55.04;99592.97;5091302;28;20031;-75
2023/06/20 05:39:44;;;;;;;9.05;8.18;;;;;;;22.74;55.12;99604.09;5091244;28;20028;-76
2023/06/20 05:42:09;;;;;;;9.27;8.18;;;;;;;22.77;54.38;99599.00;5091344;28;20023;-77
2023/06/20 05:44:36;;;;;;;9.50;8.60;;;;;;;22.61;54.34;99556.88;5091022;28;20459;-75
2023/06/20 05:47:03;;;;;;;9.45;8.45;;;;;;;22.63;54.36;99549.34;5091056;28;20112;-75
2023/06/20 05:49:28;;;;;;;9.95;8.95;;;;;;;22.44;54.51;99526.59;5091244;28;20032;-75
2023/06/20 05:51:54;;;;;;;9.13;8.23;;;;;;;22.59;54.48;99526.72;5090198;28;20036;-76
2023/06/20 05:54:22;;;;;;;9.82;8.82;;;;;;;22.95;54.37;99581.66;5073401;28;20393;-76
2023/06/20 05:56:49;;;;;;;11.98;9.25;;;;;;;23.15;54.15;99597.19;5070607;28;20032;-75
2023/06/20 05:59:14;;;;;;;10.35;9.40;;;;;;;23.03;54.14;99575.00;5071004;28;20032;-76
2023/06/20 06:01:40;;;;;;;10.52;9.15;;;;;;;23.08;54.18;99573.19;5071991;28;20412;-74
2023/06/20 06:04:06;;;;;;;9.45;8.45;;;;;;;22.89;53.88;99530.72;5075852;28;20025;-72
2023/06/20 06:06:31;;;;;;;9.63;8.63;;;;;;;22.97;53.93;99527.56;5063129;28;20028;-74
2023/06/20 06:08:56;;;;;;;12.52;8.80;;;;;;;23.34;53.48;99584.91;5074318;28;20029;-75
2023/06/20 06:11:22;;;;;;;9.05;7.93;;;;;;;23.31;53.55;99571.97;5073976;28;20025;-74
2023/06/20 06:13:47;;;;;;;12.00;8.07;;;;;;;23.13;53.42;99548.16;5073695;28;20103;-75
2023/06/20 06:16:13;;;;;;;8.75;7.95;;;;;;;23.39;53.31;99571.47;5077667;28;20421;-74
2023/06/20 06:18:38;;;;;;;9.93;7.20;;;;;;;23.60;53.19;99595.88;5073560;28;20020;-74
2023/06/20 06:21:04;;;;;;;8.60;7.78;;;;;;;23.70;53.17;99593.22;5074099;28;20056;-76
2023/06/20 06:23:29;;;;;;;10.50;7.20;;;;;;;23.29;52.60;99519.41;5073529;28;20024;-76
2023/06/20 06:25:55;;;;;;;8.85;8.00;;;;;;;23.41;52.50;99536.19;5080342;28;20424;-75
2023/06/20 06:28:24;;;;;;;8.48;7.45;;;;;;;23.88;52.52;99594.69;5088086;28;20425;-78
2023/06/20 06:30:49;;;;;;;8.70;6.55;;;;;;;23.96;52.31;99600.38;5073490;28;20057;-75
2023/06/20 06:33:15;;;;;;;9.00;8.10;;;;;;;24.02;51.75;99599.31;5082300;28;20444;-74
2023/06/20 06:35:41;;;;;;;8.90;6.55;;;;;;;23.78;51.44;99549.56;5073431;28;20098;-75
2023/06/20 06:38:06;;;;;;;8.00;7.30;;;;;;;24.07;51.32;99582.34;5073942;28;20028;-74
2023/06/20 06:40:32;;;;;;;8.68;7.88;;;;;;;24.13;51.06;99575.06;5073394;28;20043;-77
2023/06/20 06:42:59;;;;;;;8.27;7.47;;;;;;;24.26;50.90;99604.22;5073604;28;20035;-77
2023/06/20 06:45:24;;;;;;;8.68;7.32;;;;;;;23.84;50.45;99518.06;5090872;28;20028;-76
2023/06/20 06:47:50;;;;;;;9.07;8.15;;;;;;;24.38;50.51;99577.84;5073917;28;20433;-76
2023/06/20 06:50:15;;;;;;;9.73;8.68;;;;;;;23.99;50.60;99491.16;5073191;28;20037;-74
2023/06/20 06:52:41;;;;;;;9.98;7.57;;;;;;;24.51;50.21;99565.72;5071395;28;20454;-77
2023/06/20 06:55:07;;;;;;;8.38;7.60;;;;;;;24.57;50.15;99570.06;5067975;28;20021;-76
2023/06/20 06:57:33;;;;;;;8.30;7.57;;;;;;;24.63;50.19;99571.69;5080764;28;20055;-76
2023/06/20 06:59:58;;;;;;;7.60;6.93;;;;;;;24.33;49.93;99516.56;5072026;28;20503;-76
2023/06/20 07:02:26;;;;;;;8.88;7.90;;;;;;;24.34;50.10;99498.50;5073226;28;20028;-77
2023/06/20 07:04:51;;;;;;;9.13;7.90;;;;;;;24.48;49.90;99501.47;5073240;28;20099;-77
2023/06/20 07:07:16;;;;;;;8.88;7.80;;;;;;;24.84;50.01;99550.88;5073358;28;20020;-75
2023/06/20 07:09:42;;;;;;;7.63;6.93;;;;;;;24.49;50.11;99487.69;5081603;28;20028;-76
2023/06/20 07:12:07;;;;;;;9.13;8.18;;;;;;;24.71;49.95;99515.25;5088202;28;20408;-75
2023/06/20 07:14:33;;;;;;;9.45;8.45;;;;;;;24.61;49.71;99477.47;5072425;28;20020;-75
2023/06/20 07:16:59;;;;;;;8.57;7.78;;;;;;;25.18;49.53;99551.94;5073481;28;20489;-75
2023/06/20 07:19:25;;;;;;;8.25;7.40;;;;;;;25.16;49.27;99542.50;5074879;28;20046;-74
2023/06/20 07:21:50;;;;;;;7.75;6.95;;;;;;;24.77;48.76;99477.44;5074716;28;20107;-75
2023/06/20 07:24:16;;;;;;;8.32;7.68;;;;;;;24.87;48.63;99482.81;5081930;28;20036;-76
2023/06/20 07:26:41;;;;;;;8.45;7.57;;;;;;;25.06;48.53;99493.88;5093456;28;20036;-77
2023/06/20 07:29:06;;;;;;;8.30;7.43;;;;;;;24.90;48.30;99466.06;5081452;28;20017;-76
2023/06/20 07:31:32;;;;;;;8.75;7.80;;;;;;;25.46;48.25;99536.22;5079190;28;20425;-76
2023/06/20 07:33:57;;;;;;;8.43;7.63;;;;;;;25.37;48.09;99508.97;5071046;28;20405;-77
2023/06/20 07:36:23;;;;;;;12.80;11.35;;;;;;;25.16;47.49;99473.06;5071031;28;20024;-75
2023/06/20 07:38:48;;;;;;;13.98;10.77;;;;;;;25.48;47.36;99502.41;5074971;28;20757;-75
2023/06/20 07:41:13;;;;;;;10.60;9.55;;;;;;;25.77;47.27;99543.16;5074348;28;20031;-76
2023/06/20 07:43:39;;;;;;;13.50;12.05;;;;;;;25.42;47.49;99491.91;5070787;28;20045;-76
2023/06/20 07:46:06;;;;;;;10.90;9.80;;;;;;;25.49;46.98;99492.41;5076662;28;20072;-74
2023/06/20 07:48:32;;;;;;;14.43;13.10;;;;;;;25.62;46.74;99516.97;5072812;28;20116;-76
2023/06/20 07:50:57;;;;;;;10.05;9.05;;;;;;;26.02;47.05;99573.91;5079487;28;20066;-75
2023/06/20 07:53:23;;;;;;;11.20;9.98;;;;;;;25.79;46.84;99522.03;5071577;28;20383;-75
2023/06/20 07:55:49;;;;;;;11.40;8.73;;;;;;;26.01;46.43;99553.31;5068412;28;20036;-74
2023/06/20 07:58:14;;;;;;;17.05;9.93;;;;;;;25.93;46.13;99523.06;5088197;28;20520;-76
2023/06/20 08:00:40;;;;;;;10.98;9.85;;;;;;;26.26;45.33;99578.34;5071369;28;20024;-75
2023/06/20 08:03:07;;;;;;;12.82;7.93;;;;;;;26.03;44.60;99516.81;5069577;28;20033;-76
2023/06/20 08:05:32;;;;;;;9.07;8.02;;;;;;;26.33;44.34;99555.59;5072772;28;20424;-75
2023/06/20 08:07:58;;;;;;;11.10;8.90;;;;;;;26.35;44.17;99548.81;5072002;28;20017;-76
2023/06/20 08:10:23;;;;;;;10.98;8.43;;;;;;;26.55;43.96;99573.03;5074868;28;20020;-76
2023/06/20 08:12:48;;;;;;;9.00;8.13;;;;;;;26.27;43.73;99523.13;5069344;28;20036;-76
2023/06/20 08:15:14;;;;;;;9.95;8.68;;;;;;;26.35;44.26;99515.53;5071068;28;20024;-76
2023/06/20 08:17:39;;;;;;;9.57;8.27;;;;;;;26.52;44.42;99537.59;5070303;28;20441;-76
2023/06/20 08:20:06;;;;;;;10.30;8.80;;;;;;;26.46;44.32;99512.47;5069598;28;20020;-76
2023/06/20 08:22:32;;;;;;;9.30;8.40;;;;;;;26.66;44.50;99532.34;5086237;28;20165;-76
2023/06/20 08:24:58;;;;;;;9.80;8.85;;;;;;;26.76;44.21;99529.56;5085751;28;20056;-75
2023/06/20 08:27:23;;;;;;;10.40;8.68;;;;;;;26.60;43.43;99513.41;5070739;28;20129;-76
2023/06/20 08:29:49;;;;;;;9.20;8.23;;;;;;;26.90;43.32;99544.06;5071976;28;20040;-76
2023/06/20 08:32:14;;;;;;;8.35;7.63;;;;;;;27.15;43.35;99576.38;5072391;28;20197;-77
2023/06/20 08:34:39;;;;;;;8.70;7.78;;;;;;;26.94;43.09;99523.44;5073945;28;20023;-74
2023/06/20 08:37:06;;;;;;;11.98;8.50;;;;;;;27.14;43.26;99550.34;5083148;28;20031;-74
2023/06/20 08:39:31;;;;;;;9.60;8.70;;;;;;;26.89;43.14;99497.19;5076584;28;20511;-77
2023/06/20 08:41:57;;;;;;;9.25;8.18;;;;;;;27.15;42.96;99529.47;5071761;28;20028;-76
2023/06/20 08:44:23;;;;;;;9.63;8.68;;;;;;;27.28;43.01;99517.94;5071827;28;20089;-75
2023/06/20 08:46:54;;;;;;;9.38;8.35;;;;;;;27.33;41.96;99508.94;5071256;28;20024;-74
2023/06/20 08:49:19;;;;;;;;;;;;;;;27.54;42.00;99548.31;5071702;28;20035;-74
2023/06/20 08:51:47;;;;;;;11.65;10.45;;;;;;;27.74;42.21;99552.72;5071494;28;19908;-76
2023/06/20 08:54:16;;;;;;;9.77;8.02;;;;;;;27.34;41.86;99491.59;5071476;28;20033;-76
2023/06/20 08:56:43;;;;;;;10.15;9.07;;;;;;;27.54;42.31;99497.59;5070099;28;20117;-74
2023/06/20 08:59:09;;;;;;;11.93;9.82;;;;;;;28.02;42.26;99548.25;5072169;28;20032;-74
2023/06/20 09:01:37;;;;;;;9.35;8.45;;;;;;;27.92;41.81;99505.00;5072833;28;20016;-77
2023/06/20 09:04:02;;;;;;;9.05;8.27;;;;;;;28.18;41.38;99536.09;5070897;28;20035;-76
2023/06/20 09:06:37;;;;;;;12.23;9.60;;;;;;;28.46;40.91;99535.16;5067122;28;20021;-77
2023/06/20 09:09:03;;;;;;;9.05;8.18;;;;;;;28.59;40.87;99544.47;5049807;28;20017;-76
2023/06/20 09:11:34;;;;;;;10.02;7.78;;;;;;;28.72;40.24;99523.88;5050959;28;20029;-76
2023/06/20 09:14:00;;;;;;;9.10;8.30;;;;;;;28.53;39.90;99463.34;5076659;28;20361;-75
2023/06/20 09:16:27;;;;;;;9.18;8.38;;;;;;;28.77;39.73;99483.03;5091521;28;20489;-76
2023/06/20 09:18:58;;;;;;;7.95;7.18;;;;;;;28.77;39.08;99462.09;5091426;28;20024;-75
2023/06/20 09:21:23;;;;;;;8.27;7.47;;;;;;;28.94;38.58;99471.59;5088193;28;20454;-75
2023/06/20 09:24:01;;;;;;;7.50;6.50;;;;;;;29.45;35.27;99525.84;5070975;28;20082;-75
2023/06/20 09:26:26;;;;;;;8.70;7.03;;;;;;;29.58;36.55;99533.19;5070980;28;20025;-76
2023/06/20 09:29:05;;;;;;;7.07;6.35;;;;;;;29.67;34.03;99531.38;5071447;28;20579;-76
2023/06/20 09:31:48;;;;;;;6.88;5.68;;;;;;;29.63;34.63;99499.63;5070983;28;20075;-76
2023/06/20 09:34:14;;;;;;;7.32;6.30;;;;;;;29.94;34.39;99511.50;5070847;28;20016;-76
2023/06/20 09:36:40;;;;;;;7.13;6.40;;;;;;;29.93;34.18;99473.69;5070955;28;20020;-76
2023/06/20 09:39:20;;;;;;;7.22;6.53;;;;;;;30.51;32.25;99530.09;5074246;28;20032;-76
2023/06/20 09:41:52;;;;;;;7.72;6.90;;;;;;;30.46;32.96;99486.59;5073098;28;20052;-76
2023/06/20 09:44:19;;;;;;;6.63;6.00;;;;;;;30.80;32.11;99519.56;5091405;28;20097;-76
2023/06/20 09:46:44;;;;;;;6.25;5.65;;;;;;;30.42;32.28;99456.44;5095393;28;20020;-76
2023/06/20 09:49:15;;;;;;;7.10;6.50;;;;;;;30.89;32.02;99506.78;5083258;28;20077;-76
2023/06/20 09:51:53;;;;;;;6.95;5.88;;;;;;;30.90;31.52;99500.22;5075012;28;20025;-76
2023/06/20 09:54:48;;;;;;;7.22;5.70;;;;;;;30.74;31.47;99458.13;5073130;28;20044;-76
2023/06/20 09:57:20;;;;;;;8.50;7.45;;;;;;;30.91;30.29;99466.38;5074863;28;20109;-77
2023/06/20 09:59:49;;;;;;;6.80;5.70;;;;;;;31.28;30.21;99508.75;5082962;28;20024;-76
2023/06/20 10:02:18;;;;;;;8.10;6.43;;;;;;;31.42;29.79;99497.72;5074700;28;20314;-76
2023/06/20 10:04:45;;;;;;;6.03;4.93;;;;;;;31.44;29.46;99498.22;5082107;28;20548;-75
2023/06/20 10:07:14;;;;;;;6.72;5.50;;;;;;;30.97;29.55;99391.50;5074193;28;20101;-75
2023/06/20 10:09:41;;;;;;;5.78;4.50;;;;;;;31.79;28.44;99487.38;5067123;28;20112;-76
2023/06/20 10:12:08;;;;;;;5.30;4.85;;;;;;;31.77;28.30;99467.78;5069391;28;20063;-76
2023/06/20 10:14:34;;;;;;;5.45;4.97;;;;;;;32.07;27.99;99494.19;5074424;28;20020;-76
2023/06/20 10:17:09;;;;;;;4.72;4.30;;;;;;;31.99;26.14;99464.94;5072976;28;20518;-77
2023/06/20 10:19:51;;;;;;;8.40;6.97;;;;;;;32.18;26.93;99467.34;5073891;28;20052;-76
2023/06/20 10:22:53;;;;;;;5.80;4.05;;;;;;;32.00;24.94;99416.56;5074210;28;20115;-75
2023/06/20 10:25:19;;;;;;;5.20;4.70;;;;;;;32.04;26.70;99431.19;5011061;28;20534;-75
2023/06/20 10:27:55;;;;;;;7.50;6.28;;;;;;;31.61;26.95;99391.81;5067419;28;20048;-77
2023/06/20 10:30:55;;;;;;;10.10;8.32;;;;;;;32.17;27.82;99477.47;5074326;28;20039;-76
2023/06/20 10:33:39;;;;;;;7.88;6.93;;;;;;;31.55;27.51;99401.28;5078850;28;20027;-76
2023/06/20 10:36:16;;;;;;;5.95;5.40;;;;;;;31.81;27.71;99420.41;5094298;28;20028;-76
2023/06/20 10:38:51;;;;;;;8.80;7.90;;;;;;;32.52;27.75;99466.50;5074877;28;20028;-76
2023/06/20 10:41:25;;;;;;;5.35;4.88;;;;;;;32.69;27.28;99458.25;5072390;28;20099;-74
2023/06/20 10:44:02;;;;;;;9.23;8.32;;;;;;;32.43;27.25;99431.00;5069529;28;20485;-77
2023/06/20 10:46:36;;;;;;;6.20;5.60;;;;;;;32.52;27.42;99458.28;5070838;28;20032;-75
2023/06/20 10:49:06;;;;;;;7.05;5.78;;;;;;;31.95;28.13;99412.06;5072210;28;20482;-75
2023/06/20 10:51:44;;;;;;;6.90;5.47;;;;;;;32.58;27.31;99464.41;5074975;28;20036;-75
2023/06/20 10:54:10;;;;;;;6.43;5.82;;;;;;;32.27;27.59;99369.78;5075054;28;20032;-75
2023/06/20 10:56:36;;;;;;;4.93;4.53;;;;;;;32.51;27.32;99424.69;5073373;28;20097;-74
2023/06/20 10:59:08;;;;;;;5.55;4.97;;;;;;;32.52;27.17;99433.69;5074443;28;20564;-76
2023/06/20 11:01:34;;;;;;;4.70;4.30;;;;;;;32.06;26.60;99434.41;5076175;28;20051;-76
2023/06/20 11:04:00;;;;;;;5.95;4.22;;;;;;;31.87;26.31;99472.94;5083698;28;20754;-75
2023/06/20 11:06:29;;;;;;;5.35;4.20;;;;;;;31.22;26.80;99427.38;5071903;28;20040;-75
2023/06/20 11:08:56;;;;;;;7.97;4.55;;;;;;;31.19;27.84;99494.25;5075688;28;20021;-74
2023/06/20 11:11:36;;;;;;;10.50;5.10;;;;;;;30.30;30.11;99429.78;5071564;28;20182;-75
2023/06/20 11:14:09;;;;;;;12.10;4.60;;;;;;;30.01;31.48;99498.28;5073109;28;20505;-77
2023/06/20 11:16:35;;;;;;;9.75;5.38;;;;;;;29.53;32.40;99483.53;5073289;28;20036;-76
2023/06/20 11:19:00;;;;;;;11.50;6.28;;;;;;;28.98;34.50;99459.81;5063620;28;20024;-75
2023/06/20 11:21:26;;;;;;;13.43;6.70;;;;;;;28.77;37.06;99515.63;5066985;28;20020;-75
2023/06/20 11:24:01;;;;;;;10.57;5.90;;;;;;;28.33;39.60;99521.53;5072879;28;20023;-76
2023/06/20 11:26:29;;;;;;;5.93;4.72;;;;;;;27.77;40.35;99503.28;5072876;28;20107;-75
2023/06/20 11:29:02;;;;;;;8.10;5.25;;;;;;;27.54;42.63;99548.31;5073149;28;20095;-75
2023/06/20 11:31:27;;;;;;;13.00;6.78;;;;;;;27.07;44.15;99509.22;5070760;28;20563;-74
2023/06/20 11:34:09;;;;;;;10.15;6.88;;;;;;;26.72;46.06;99496.78;5073695;28;20056;-74
2023/06/20 11:36:36;;;;;;;11.73;6.57;;;;;;;26.46;47.17;99498.91;5075906;28;20024;-74